createdAt,value
2018-10-17T00:02:17.768Z,11.60
2018-10-17T00:04:46.285Z,11.60
2018-10-17T00:07:14.830Z,11.60
2018-10-17T00:09:43.395Z,11.40
2018-10-17T00:12:12.116Z,11.60
2018-10-17T00:14:41.018Z,11.60
2018-10-17T00:17:10.106Z,11.70
2018-10-17T00:19:38.719Z,11.50
2018-10-17T00:22:07.457Z,11.50
2018-10-17T00:24:35.974Z,11.30
2018-10-17T00:27:07.201Z,11.30
2018-10-17T00:29:35.744Z,11.30
2018-10-17T00:32:04.472Z,11.40
2018-10-17T00:34:33.025Z,11.40
2018-10-17T00:37:01.568Z,11.40
2018-10-17T00:39:30.055Z,11.10
2018-10-17T00:41:58.623Z,11.20
2018-10-17T00:44:27.155Z,10.80
2018-10-17T00:46:55.737Z,10.90
2018-10-17T00:49:24.264Z,10.90
2018-10-17T00:51:52.776Z,10.90
2018-10-17T00:54:21.310Z,10.90
2018-10-17T00:56:49.857Z,10.80
2018-10-17T00:59:18.365Z,10.90
2018-10-17T01:01:46.817Z,10.60
2018-10-17T01:04:15.371Z,10.80
2018-10-17T01:06:43.946Z,10.90
2018-10-17T01:09:13.695Z,10.80
2018-10-17T01:11:42.522Z,10.70
2018-10-17T01:14:11.382Z,10.60
2018-10-17T01:16:39.932Z,10.60
2018-10-17T01:19:08.601Z,10.60
2018-10-17T01:21:37.689Z,10.60
2018-10-17T01:24:06.580Z,10.70
2018-10-17T01:26:35.097Z,10.80
2018-10-17T01:29:03.696Z,10.60
2018-10-17T01:31:32.187Z,10.60
2018-10-17T01:34:00.768Z,10.70
2018-10-17T01:36:29.317Z,10.80
2018-10-17T01:38:57.859Z,10.90
2018-10-17T01:41:26.437Z,10.90
2018-10-17T01:43:55.012Z,10.80
2018-10-17T01:46:23.613Z,10.80
2018-10-17T01:48:52.198Z,10.50
2018-10-17T01:51:20.709Z,10.40
2018-10-17T01:53:49.233Z,10.50
2018-10-17T01:56:17.803Z,10.50
2018-10-17T01:58:46.309Z,10.50
2018-10-17T02:01:15.013Z,10.60
2018-10-17T02:03:43.445Z,10.50
2018-10-17T02:06:12.013Z,10.20
2018-10-17T02:08:40.543Z,10.30
2018-10-17T02:11:09.151Z,10.40
2018-10-17T02:13:37.629Z,10.20
2018-10-17T02:16:06.165Z,10.40
2018-10-17T02:18:34.688Z,10.30
2018-10-17T02:21:03.225Z,10.30
2018-10-17T02:23:31.755Z,10.20
2018-10-17T02:26:00.228Z,10.60
2018-10-17T02:28:28.718Z,9.90
2018-10-17T02:30:57.306Z,10.10
2018-10-17T02:33:25.769Z,10.30
2018-10-17T02:35:54.290Z,10.40
2018-10-17T02:38:22.804Z,9.80
2018-10-17T02:40:51.558Z,9.80
2018-10-17T02:43:20.046Z,9.70
2018-10-17T02:45:48.555Z,9.70
2018-10-17T02:48:17.079Z,10.00
2018-10-17T02:50:45.629Z,10.20
2018-10-17T02:53:21.034Z,10.20
2018-10-17T02:55:49.525Z,10.10
2018-10-17T02:58:18.000Z,9.70
2018-10-17T03:00:46.524Z,9.60
2018-10-17T03:03:15.014Z,9.40
2018-10-17T03:05:43.529Z,9.30
2018-10-17T03:08:12.096Z,9.40
2018-10-17T03:10:40.695Z,9.60
2018-10-17T03:13:09.324Z,9.70
2018-10-17T03:15:37.761Z,9.80
2018-10-17T03:18:12.960Z,9.90
2018-10-17T03:20:41.586Z,9.70
2018-10-17T03:23:10.182Z,9.40
2018-10-17T03:25:38.712Z,9.60
2018-10-17T03:28:07.358Z,9.70
2018-10-17T03:30:35.797Z,9.80
2018-10-17T03:33:04.395Z,9.70
2018-10-17T03:35:32.891Z,10.00
2018-10-17T03:38:01.428Z,9.80
2018-10-17T03:40:29.911Z,9.70
2018-10-17T03:42:58.507Z,9.60
2018-10-17T03:45:27.027Z,9.60
2018-10-17T03:47:55.571Z,9.60
2018-10-17T03:50:24.146Z,9.70
2018-10-17T03:52:52.661Z,9.40
2018-10-17T03:55:21.191Z,9.60
2018-10-17T03:57:49.709Z,9.50
2018-10-17T04:00:18.186Z,9.60
2018-10-17T04:02:46.780Z,9.40
2018-10-17T04:05:15.316Z,9.50
2018-10-17T04:07:43.810Z,9.40
2018-10-17T04:10:12.417Z,9.30
2018-10-17T04:12:41.002Z,9.10
2018-10-17T04:15:10.262Z,9.00
2018-10-17T04:17:38.763Z,9.30
2018-10-17T04:20:07.316Z,9.50
2018-10-17T04:22:35.849Z,9.40
2018-10-17T04:25:04.804Z,9.60
2018-10-17T04:27:33.287Z,9.60
2018-10-17T04:30:01.824Z,9.50
2018-10-17T04:32:30.357Z,9.30
2018-10-17T04:34:58.914Z,9.20
2018-10-17T04:37:27.375Z,9.30
2018-10-17T04:39:55.896Z,9.20
2018-10-17T04:42:24.648Z,9.40
2018-10-17T04:44:53.157Z,9.10
2018-10-17T04:47:21.717Z,9.00
2018-10-17T04:49:50.270Z,8.80
2018-10-17T04:52:18.752Z,9.10
2018-10-17T04:54:53.833Z,9.40
2018-10-17T04:57:22.451Z,9.40
2018-10-17T04:59:50.985Z,8.90
2018-10-17T05:02:19.521Z,9.20
2018-10-17T05:04:48.035Z,9.20
2018-10-17T05:07:16.590Z,9.30
2018-10-17T05:09:45.269Z,9.30
2018-10-17T05:12:13.795Z,8.90
2018-10-17T05:14:42.315Z,9.00
2018-10-17T05:17:10.905Z,8.90
2018-10-17T05:19:39.461Z,9.20
2018-10-17T05:22:08.207Z,9.10
2018-10-17T05:24:36.705Z,9.00
2018-10-17T05:29:42.166Z,9.10
2018-10-17T05:32:10.738Z,8.80
2018-10-17T05:34:39.286Z,8.80
2018-10-17T05:37:09.206Z,9.00
2018-10-17T05:39:37.798Z,9.00
2018-10-17T05:42:06.490Z,9.10
2018-10-17T05:44:35.483Z,8.70
2018-10-17T05:47:04.456Z,8.50
2018-10-17T05:49:33.010Z,8.60
2018-10-17T05:52:01.579Z,8.60
2018-10-17T05:54:30.117Z,8.80
2018-10-17T05:56:58.676Z,9.10
2018-10-17T05:59:27.167Z,9.00
2018-10-17T06:01:56.776Z,9.10
2018-10-17T06:04:25.682Z,8.80
2018-10-17T06:06:54.281Z,9.00
2018-10-17T06:09:22.921Z,9.10
2018-10-17T06:11:51.409Z,8.90
2018-10-17T06:14:19.956Z,9.10
2018-10-17T06:16:48.488Z,9.10
2018-10-17T06:19:17.027Z,9.20
2018-10-17T06:21:45.578Z,9.10
2018-10-17T06:24:14.062Z,9.20
2018-10-17T06:26:42.532Z,9.30
2018-10-17T06:29:11.109Z,9.10
2018-10-17T06:31:39.583Z,9.10
2018-10-17T06:34:08.305Z,9.20
2018-10-17T06:36:36.802Z,9.20
2018-10-17T06:39:07.926Z,9.40
2018-10-17T06:41:36.803Z,9.20
2018-10-17T06:44:05.942Z,9.00
2018-10-17T06:46:34.591Z,9.10
2018-10-17T06:49:03.245Z,9.10
2018-10-17T06:51:31.713Z,9.20
2018-10-17T06:54:00.252Z,9.30
2018-10-17T06:56:28.735Z,9.10
2018-10-17T06:58:57.563Z,9.20
2018-10-17T07:01:26.030Z,9.10
2018-10-17T07:03:54.541Z,9.20
2018-10-17T07:06:23.091Z,9.40
2018-10-17T07:08:51.599Z,9.50
2018-10-17T07:11:20.162Z,9.70
2018-10-17T07:13:55.045Z,9.60
2018-10-17T07:16:24.047Z,9.60
2018-10-17T07:18:52.700Z,9.60
2018-10-17T07:21:21.178Z,9.80
2018-10-17T07:23:50.367Z,9.80
2018-10-17T07:26:18.889Z,9.90
2018-10-17T07:28:47.501Z,10.10
2018-10-17T07:31:16.169Z,10.10
2018-10-17T07:33:44.551Z,10.30
2018-10-17T07:36:13.460Z,10.50
2018-10-17T07:38:41.876Z,10.40
2018-10-17T07:41:10.462Z,10.60
2018-10-17T07:43:39.019Z,10.70
2018-10-17T07:46:07.707Z,10.80
2018-10-17T07:48:36.823Z,11.00
2018-10-17T07:51:05.595Z,11.30
2018-10-17T07:53:34.537Z,11.50
2018-10-17T07:56:03.718Z,11.70
2018-10-17T07:58:32.618Z,12.10
2018-10-17T08:01:01.361Z,12.30
2018-10-17T08:03:29.931Z,12.40
2018-10-17T08:05:58.538Z,12.60
2018-10-17T08:08:27.130Z,12.80
2018-10-17T08:10:56.166Z,12.80
2018-10-17T08:13:25.038Z,12.90
2018-10-17T08:15:53.561Z,13.00
2018-10-17T08:18:22.330Z,12.90
2018-10-17T08:20:50.889Z,13.10
2018-10-17T08:23:19.433Z,13.50
2018-10-17T08:25:48.268Z,13.70
2018-10-17T08:28:16.831Z,13.90
2018-10-17T08:30:45.511Z,13.90
2018-10-17T08:33:14.011Z,14.40
2018-10-17T08:35:42.618Z,14.50
2018-10-17T08:38:11.178Z,14.60
2018-10-17T08:40:39.774Z,14.70
2018-10-17T08:43:08.500Z,14.70
2018-10-17T08:45:37.259Z,14.80
2018-10-17T08:48:06.234Z,14.80
2018-10-17T08:50:34.824Z,15.10
2018-10-17T08:53:03.352Z,15.30
2018-10-17T08:55:31.942Z,15.20
2018-10-17T08:58:00.952Z,15.30
2018-10-17T09:00:30.160Z,15.30
2018-10-17T09:02:58.785Z,15.20
2018-10-17T09:05:27.521Z,15.30
2018-10-17T09:07:56.208Z,15.50
2018-10-17T09:10:24.636Z,15.90
2018-10-17T09:12:53.301Z,15.90
2018-10-17T09:15:21.800Z,16.30
2018-10-17T09:17:50.539Z,16.40
2018-10-17T09:20:19.413Z,16.60
2018-10-17T09:22:47.620Z,16.80
2018-10-17T09:25:16.206Z,16.90
2018-10-17T09:27:44.664Z,16.80
2018-10-17T09:30:13.287Z,16.70
2018-10-17T09:32:41.929Z,16.90
2018-10-17T09:35:11.794Z,16.80
2018-10-17T09:37:40.301Z,16.80
2018-10-17T09:40:10.377Z,17.10
2018-10-17T09:42:39.263Z,17.60
2018-10-17T09:45:13.266Z,17.90
2018-10-17T09:47:41.826Z,17.80
2018-10-17T09:50:10.882Z,17.80
2018-10-17T09:52:39.467Z,17.90
2018-10-17T09:55:08.620Z,18.20
2018-10-17T09:57:37.188Z,18.30
2018-10-17T10:00:15.003Z,18.60
2018-10-17T10:02:43.497Z,18.70
2018-10-17T10:05:12.121Z,18.80
2018-10-17T10:07:40.725Z,19.20
2018-10-17T10:10:10.079Z,19.10
2018-10-17T10:12:38.672Z,19.30
2018-10-17T10:15:07.270Z,19.10
2018-10-17T10:17:35.940Z,19.20
2018-10-17T10:20:04.599Z,19.30
2018-10-17T10:22:33.113Z,19.30
2018-10-17T10:25:01.714Z,19.50
2018-10-17T10:27:30.155Z,19.30
2018-10-17T10:29:59.100Z,19.70
2018-10-17T10:32:27.795Z,19.90
2018-10-17T10:34:56.349Z,19.90
2018-10-17T10:37:24.895Z,20.10
2018-10-17T10:39:54.494Z,20.30
2018-10-17T10:42:23.157Z,20.40
2018-10-17T10:44:51.808Z,20.40
2018-10-17T10:47:20.515Z,20.40
2018-10-17T10:49:49.169Z,20.50
2018-10-17T10:52:17.866Z,20.80
2018-10-17T10:54:46.804Z,21.00
2018-10-17T10:57:15.463Z,21.20
2018-10-17T10:59:44.299Z,21.40
2018-10-17T11:02:12.888Z,21.30
2018-10-17T11:04:41.505Z,21.50
2018-10-17T11:07:10.035Z,21.60
2018-10-17T11:09:38.576Z,21.60
2018-10-17T11:12:07.169Z,21.90
2018-10-17T11:14:35.794Z,22.30
2018-10-17T11:17:04.558Z,22.40
2018-10-17T11:19:33.262Z,22.50
2018-10-17T11:22:01.885Z,22.20
2018-10-17T11:24:30.354Z,22.10
2018-10-17T11:26:59.094Z,22.20
2018-10-17T11:29:27.600Z,22.70
2018-10-17T11:31:56.407Z,22.90
2018-10-17T11:34:25.016Z,23.30
2018-10-17T11:36:53.581Z,23.30
2018-10-17T11:39:22.156Z,23.80
2018-10-17T11:41:50.670Z,23.50
2018-10-17T11:44:19.200Z,23.40
2018-10-17T11:46:47.772Z,23.60
2018-10-17T11:49:16.293Z,23.20
2018-10-17T11:51:44.873Z,23.00
2018-10-17T11:54:14.826Z,23.20
2018-10-17T11:56:43.479Z,23.00
2018-10-17T11:59:12.289Z,23.30
2018-10-17T12:01:40.769Z,23.50
2018-10-17T12:04:09.853Z,23.40
2018-10-17T12:06:38.559Z,23.40
2018-10-17T12:09:10.394Z,23.40
2018-10-17T12:11:39.007Z,23.20
2018-10-17T12:14:07.588Z,23.40
2018-10-17T12:16:36.087Z,23.20
2018-10-17T12:19:04.876Z,23.30
2018-10-17T12:21:33.746Z,23.10
2018-10-17T12:24:02.298Z,23.00
2018-10-17T12:26:30.931Z,23.20
2018-10-17T12:28:59.867Z,23.40
2018-10-17T12:31:28.549Z,23.30
2018-10-17T12:33:57.321Z,23.40
2018-10-17T12:36:26.039Z,23.40
2018-10-17T12:38:54.591Z,23.50
2018-10-17T12:41:23.475Z,23.30
2018-10-17T12:43:52.380Z,23.40
2018-10-17T12:46:21.323Z,23.20
2018-10-17T12:48:50.002Z,22.70
2018-10-17T12:51:18.569Z,23.20
2018-10-17T12:53:47.334Z,23.30
2018-10-17T12:56:16.118Z,23.00
2018-10-17T12:58:44.770Z,23.20
2018-10-17T13:01:13.718Z,23.10
2018-10-17T13:03:42.342Z,23.00
2018-10-17T13:06:10.957Z,22.70
2018-10-17T13:08:39.949Z,22.60
2018-10-17T13:11:08.604Z,23.00
2018-10-17T13:13:37.079Z,23.20
2018-10-17T13:16:05.704Z,23.30
2018-10-17T13:18:34.546Z,23.30
2018-10-17T13:21:09.663Z,23.60
2018-10-17T13:23:38.257Z,23.60
2018-10-17T13:26:06.716Z,23.40
2018-10-17T13:28:35.167Z,23.30
2018-10-17T13:31:03.960Z,22.90
2018-10-17T13:33:32.491Z,22.80
2018-10-17T13:36:01.189Z,22.70
2018-10-17T13:38:29.814Z,22.90
2018-10-17T13:40:58.388Z,22.70
2018-10-17T13:43:26.932Z,22.60
2018-10-17T13:45:55.707Z,22.80
2018-10-17T13:48:24.292Z,22.80
2018-10-17T13:50:52.913Z,22.80
2018-10-17T13:53:28.032Z,22.60
2018-10-17T13:55:56.607Z,22.30
2018-10-17T13:58:25.260Z,22.20
2018-10-17T14:00:54.117Z,22.10
2018-10-17T14:03:22.713Z,22.10
2018-10-17T14:05:51.355Z,22.20
2018-10-17T14:08:20.179Z,22.20
2018-10-17T14:10:48.841Z,22.20
2018-10-17T14:13:17.489Z,22.10
2018-10-17T14:15:46.102Z,22.00
2018-10-17T14:18:14.724Z,22.00
2018-10-17T14:20:43.224Z,21.90
2018-10-17T14:23:11.857Z,22.00
2018-10-17T14:25:40.419Z,21.90
2018-10-17T14:28:08.994Z,21.90
2018-10-17T14:30:37.766Z,21.90
2018-10-17T14:33:06.472Z,21.80
2018-10-17T14:35:35.030Z,21.80
2018-10-17T14:38:03.921Z,21.70
2018-10-17T14:40:32.552Z,21.70
2018-10-17T14:43:01.489Z,21.70
2018-10-17T14:45:30.023Z,21.70
2018-10-17T14:47:58.738Z,21.60
2018-10-17T14:50:27.263Z,21.50
2018-10-17T14:52:56.270Z,21.70
2018-10-17T14:55:25.029Z,21.60
2018-10-17T14:57:53.597Z,21.50
2018-10-17T15:00:22.169Z,21.50
2018-10-17T15:02:50.707Z,21.50
2018-10-17T15:05:19.352Z,21.40
2018-10-17T15:07:47.875Z,21.30
2018-10-17T15:10:16.486Z,21.30
2018-10-17T15:12:45.006Z,21.20
2018-10-17T15:15:13.836Z,21.20
2018-10-17T15:17:42.343Z,21.20
2018-10-17T15:20:10.992Z,21.10
2018-10-17T15:22:39.567Z,21.10
2018-10-17T15:25:08.364Z,21.00
2018-10-17T15:27:37.018Z,20.90
2018-10-17T15:30:06.708Z,20.90
2018-10-17T15:32:35.230Z,20.80
2018-10-17T15:35:03.849Z,20.80
2018-10-17T15:37:32.453Z,20.70
2018-10-17T15:40:01.077Z,20.60
2018-10-17T15:42:29.748Z,20.60
2018-10-17T15:44:58.366Z,20.50
2018-10-17T15:47:26.896Z,20.40
2018-10-17T15:49:55.516Z,20.40
2018-10-17T15:52:24.101Z,20.30
2018-10-17T15:54:52.667Z,20.20
2018-10-17T15:57:21.244Z,20.30
2018-10-17T15:59:49.837Z,20.20
2018-10-17T16:02:18.524Z,19.90
2018-10-17T16:04:47.028Z,19.60
2018-10-17T16:07:15.568Z,19.20
2018-10-17T16:09:44.144Z,19.30
2018-10-17T16:12:13.022Z,19.40
2018-10-17T16:14:41.487Z,19.30
2018-10-17T16:17:10.087Z,19.30
2018-10-17T16:19:38.595Z,19.20
2018-10-17T16:22:07.300Z,19.00
2018-10-17T16:26:49.124Z,18.80
2018-10-17T16:29:17.731Z,18.60
2018-10-17T16:31:46.402Z,18.40
2018-10-17T16:34:15.046Z,18.50
2018-10-17T16:36:55.209Z,18.60
2018-10-17T16:39:23.800Z,18.60
2018-10-17T16:41:52.493Z,18.50
2018-10-17T16:44:21.201Z,18.30
